Kailua Kona, HI

4:01 AM HST on December 25, 2014 (GMT -1000)
Keauhou Bay, Kailua Kona | Change Station
CLOSE
Current Station
Personal Weather Station
Location: Kailua-Kona, HI
Elevation: 52 ft
Nearby Weather Stations

Elev 52 ft 19.56 °N, 155.96 °W | Updated 2 seconds ago

Mostly Cloudy
Mostly Cloudy
67.2 °F
Feels Like 67.2 °F
N
1.6
Wind Variable Wind from NE
Gusts 4.0 mph

Today
High -- | Low -- °F
--% Chance of Precip.
Yesterday
High -- | Low -- °F
Precip. -- in
6:55 AM 5:52 PM
Waxing Crescent, 16% visible
Pressure 29.75 in
Visibility 10.0 miles
Clouds Mostly Cloudy 2400 ft
Dew Point 62 °F
Humidity 83%
Rainfall 0.00 in
Snow Depth Not available.
UV 0 out of 12
Pollen Not available.
Air Quality Not available.
Flu Activity Not available.
METAR PHKO 251353Z AUTO 13007KT 10SM BKN024 22/19 A2974 RMK AO2 SLP072 T02220189 TSNO

More Conditions Fewer Conditions

Pressure 29.75 in
Visibility 10.0 miles
Clouds Mostly Cloudy 2400 ft
Dew Point 62 °F
Humidity 83%
Rainfall 0.00 in
Snow Depth Not available.
UV 0 out of 12
Pollen Not available.
Air Quality Not available.
Flu Activity Not available.
METAR PHKO 251353Z AUTO 13007KT 10SM BKN024 22/19 A2974 RMK AO2 SLP072 T02220189 TSNO

More Conditions Fewer Conditions

10-Day Weather Forecast

Almanac

Astronomy

Dec. 25, 2014 Rise Set
Actual Time
Civil Twilight
Nautical Twilight
Astronomical Twilight
Moon
Length of Visible Light
Length of Day
Tomorrow will be .
, % of the Moon is Illuminated

Today's Extremes

State Highs State Lows

Community

WunderPhotos

Upload Photos

1,780,277 photos uploaded!

WunderBlogs® & News

Nearby

Air Quality

  Air Quality AQ Index Pollutant
Not available.

Snow Depth

Station Depth Elevation

Earthquake Activity

City Distance Mag. Time & Date
Minimum magnitude displayed is 2.5.

Coastal Water Temperatures

Place Temperature

Nearby Weather Stations